Time;durP1;ratioP1;P1;durP2;ratioP2;P2;SDS_P1;SDS_P2;PMS_P1;PMS_P2;Temp;Humidity;BMP_temperature;BMP_pressure;BME280_temperature;BME280_humidity;BME280_pressure;Samples;Min_cycle;Max_cycle;Signal;HPM_P1;HPM_P2
2023/04/30 00:01:38;;;;;;;;;41.50;32.25;;;;;21.08;39.17;101439.59;5074164;27;45883;-71
2023/04/30 00:04:04;;;;;;;;;34.25;29.50;;;;;21.08;39.54;101430.75;5080009;27;45311;-71
2023/04/30 00:06:29;;;;;;;;;31.25;28.25;;;;;21.07;39.21;101426.38;5075591;27;45473;-71
2023/04/30 00:08:55;;;;;;;;;34.00;29.25;;;;;21.08;38.96;101434.28;5077747;27;45602;-71
2023/04/30 00:11:20;;;;;;;;;32.25;29.00;;;;;21.08;39.21;101433.41;5071665;28;72384;-71
2023/04/30 00:13:45;;;;;;;;;33.25;29.75;;;;;21.05;39.49;101430.00;5059770;28;73838;-72
2023/04/30 00:16:11;;;;;;;;;34.25;27.75;;;;;21.05;39.00;101429.13;5073632;28;45495;-71
2023/04/30 00:18:37;;;;;;;;;36.25;28.00;;;;;21.04;38.97;101433.59;5076980;27;46234;-72
2023/04/30 00:21:03;;;;;;;;;33.25;29.00;;;;;21.08;38.92;101439.59;5072807;27;46251;-72
2023/04/30 00:23:28;;;;;;;;;30.50;27.00;;;;;21.08;39.16;101431.59;5085286;27;45395;-72
2023/04/30 00:25:53;;;;;;;;;33.00;26.25;;;;;21.06;39.29;101425.53;5069750;28;70742;-71
2023/04/30 00:28:19;;;;;;;;;28.50;27.50;;;;;21.07;39.04;101421.94;5077325;28;73066;-72
2023/04/30 00:30:44;;;;;;;;;28.00;25.50;;;;;21.08;38.94;101431.59;5070741;27;45290;-71
2023/04/30 00:33:10;;;;;;;;;31.75;26.00;;;;;21.06;39.26;101422.88;5059502;28;46069;-72
2023/04/30 00:35:35;;;;;;;;;30.00;24.00;;;;;21.05;39.02;101422.00;5071587;27;45460;-71
2023/04/30 00:38:00;;;;;;;;;29.00;28.25;;;;;21.04;39.29;101420.28;5083122;27;66248;-72
2023/04/30 00:40:26;;;;;;;;;27.50;25.50;;;;;21.05;39.14;101410.50;5077850;27;76288;-71
2023/04/30 00:42:54;;;;;;;;;25.25;24.25;;;;;21.05;39.16;101416.69;5069966;27;63353;-71
2023/04/30 00:45:21;;;;;;;;;28.25;24.25;;;;;21.07;39.01;101413.06;5071026;28;46905;-71
2023/04/30 00:47:46;;;;;;;;;28.50;24.75;;;;;21.03;38.86;101413.28;5064441;28;45540;-71
2023/04/30 00:50:14;;;;;;;;;29.25;26.00;;;;;21.04;38.94;101408.78;5046744;28;47117;-71
2023/04/30 00:52:40;;;;;;;;;31.75;25.00;;;;;21.04;39.23;101404.31;5077215;27;46015;-72
2023/04/30 00:55:06;;;;;;;;;27.75;23.50;;;;;21.07;39.02;101405.09;5063873;28;45534;-71
2023/04/30 00:57:33;;;;;;;;;24.50;23.75;;;;;21.05;39.01;101405.16;5069924;27;45393;-71
2023/04/30 00:59:58;;;;;;;;;30.00;22.50;;;;;21.03;39.37;101399.09;5051019;28;61273;-71
2023/04/30 01:02:24;;;;;;;;;30.00;24.75;;;;;21.04;38.98;101401.66;5057653;28;56850;-70
2023/04/30 01:04:49;;;;;;;;;26.50;22.75;;;;;21.03;39.17;101404.41;5058721;28;46013;-70
2023/04/30 01:07:15;;;;;;;;;23.75;20.75;;;;;21.04;39.24;101400.81;5058028;28;45404;-71
2023/04/30 01:09:41;;;;;;;;;33.50;24.25;;;;;21.04;39.23;101401.66;5074230;28;45488;-71
2023/04/30 01:12:15;;;;;;;;;27.25;22.00;;;;;21.04;38.93;101403.47;5072429;27;45334;-70
2023/04/30 01:14:52;;;;;;;;;23.50;21.50;;;;;21.04;39.27;101396.34;5053185;28;45497;-71
2023/04/30 01:17:32;;;;;;;;;22.00;19.50;;;;;21.02;38.70;101394.72;5089967;27;45615;-71
2023/04/30 01:19:58;;;;;;;;;27.00;21.75;;;;;21.01;39.18;101393.00;5061161;28;48099;-71
2023/04/30 01:22:26;;;;;;;;;29.50;22.50;;;;;21.04;39.29;101395.50;5068223;28;60889;-71
2023/04/30 01:24:58;;;;;;;;;26.50;20.00;;;;;21.04;38.79;101392.81;5071965;27;45256;-71
2023/04/30 01:27:24;;;;;;;;;25.50;21.25;;;;;21.04;39.21;101387.50;5074016;27;45544;-71
2023/04/30 01:29:51;;;;;;;;;22.75;19.75;;;;;21.02;38.71;101384.09;5069103;28;48158;-71
2023/04/30 01:32:16;;;;;;;;;30.00;20.25;;;;;20.98;38.97;101378.09;5074513;27;45390;-71
2023/04/30 01:34:42;;;;;;;;;26.75;21.75;;;;;21.01;39.31;101382.38;5058046;28;46024;-71
2023/04/30 01:37:31;;;;;;;;;21.75;20.00;;;;;21.02;38.80;101384.94;5057669;28;45485;-71
2023/04/30 01:40:08;;;;;;;;;22.75;19.75;;;;;21.02;39.13;101379.63;5070141;27;46565;-71
2023/04/30 01:42:58;;;;;;;;;21.25;19.00;;;;;21.02;39.13;101384.94;5075277;28;45353;-71
2023/04/30 01:45:40;;;;;;;;;24.50;20.00;;;;;21.01;39.18;101383.22;5064358;27;45430;-71
2023/04/30 01:48:11;;;;;;;;;20.00;18.50;;;;;21.01;38.83;101379.69;5072681;28;45303;-71
2023/04/30 01:50:48;;;;;;;;;18.50;17.75;;;;;21.01;39.05;101388.53;5068189;27;45636;-71
2023/04/30 01:53:20;;;;;;;;;23.00;19.50;;;;;21.01;39.04;101382.38;5066357;27;45441;-71
2023/04/30 01:55:52;;;;;;;;;16.75;15.50;;;;;20.98;38.84;101379.88;5057519;28;45471;-71
2023/04/30 01:58:19;;;;;;;;;20.25;18.00;;;;;21.00;38.92;101383.28;5059696;28;45564;-71
2023/04/30 02:00:45;;;;;;;;;20.00;16.25;;;;;20.98;39.29;101378.09;5084877;27;74587;-71
2023/04/30 02:03:10;;;;;;;;;20.50;17.75;;;;;20.99;39.05;101377.13;5079596;27;45480;-71
2023/04/30 02:05:35;;;;;;;;;20.25;16.50;;;;;20.99;39.03;101390.44;5080804;27;45460;-71
2023/04/30 02:08:01;;;;;;;;;17.50;14.75;;;;;21.00;39.25;101396.59;5080806;27;45343;-71
2023/04/30 02:10:28;;;;;;;;;17.00;16.50;;;;;20.97;38.82;101380.84;5076015;27;77714;-71
2023/04/30 02:12:53;;;;;;;;;21.75;17.00;;;;;20.99;38.85;101387.78;5061054;28;45928;-71
2023/04/30 02:15:19;;;;;;;;;17.75;15.75;;;;;20.98;38.90;101388.75;5074301;27;45532;-71
2023/04/30 02:17:44;;;;;;;;;21.00;14.25;;;;;20.99;38.95;101394.91;5082302;27;45492;-71
2023/04/30 02:20:10;;;;;;;;;16.50;14.00;;;;;20.97;38.97;101392.34;5074357;27;45668;-71
2023/04/30 02:22:36;;;;;;;;;21.25;16.25;;;;;20.97;39.22;101386.16;5079700;27;45389;-71
2023/04/30 02:25:02;;;;;;;;;21.50;16.50;;;;;20.98;38.58;101390.53;5078313;27;45320;-71
2023/04/30 02:27:29;;;;;;;;;16.75;15.75;;;;;20.94;39.21;101381.88;5076841;27;45500;-71
2023/04/30 02:29:55;;;;;;;;;18.50;15.50;;;;;20.96;39.26;101384.44;5064579;28;47469;-71
2023/04/30 02:32:20;;;;;;;;;19.75;16.75;;;;;20.97;39.01;101384.34;5072645;28;45566;-71
2023/04/30 02:34:46;;;;;;;;;17.50;14.50;;;;;20.96;38.82;101387.94;5070276;27;67415;-71
2023/04/30 02:37:11;;;;;;;;;16.50;15.00;;;;;20.96;39.27;101392.44;5071340;28;45433;-71
2023/04/30 02:39:37;;;;;;;;;17.00;12.75;;;;;20.96;39.03;101389.75;5067911;27;61221;-71
2023/04/30 02:42:03;;;;;;;;;14.50;13.25;;;;;20.95;39.00;101388.91;5081922;27;45669;-71
2023/04/30 02:44:29;;;;;;;;;16.25;14.00;;;;;20.95;38.88;101396.91;5083012;27;45484;-71
2023/04/30 02:46:54;;;;;;;;;20.25;15.25;;;;;20.94;39.19;101391.66;5078269;27;45284;-71
2023/04/30 02:49:19;;;;;;;;;17.50;14.75;;;;;20.95;38.90;101391.56;5074907;27;71740;-72
2023/04/30 02:51:45;;;;;;;;;17.50;14.50;;;;;20.95;39.17;101396.06;5077778;27;69917;-71
2023/04/30 02:54:10;;;;;;;;;16.75;13.00;;;;;20.92;39.26;101394.41;5065311;28;45516;-71
2023/04/30 02:56:35;;;;;;;;;16.00;13.00;;;;;20.94;38.68;101394.31;5071314;27;49799;-71
2023/04/30 02:59:01;;;;;;;;;18.75;13.75;;;;;20.93;38.90;101389.94;5085585;27;45453;-71
2023/04/30 03:01:26;;;;;;;;;12.00;12.00;;;;;20.92;38.85;101385.59;5077133;27;60078;-71
2023/04/30 03:03:52;;;;;;;;;14.50;14.50;;;;;20.93;38.70;101393.47;5076896;28;62944;-71
2023/04/30 03:06:17;;;;;;;;;15.25;12.00;;;;;20.93;38.90;101384.63;5075045;27;45210;-71
2023/04/30 03:08:43;;;;;;;;;16.50;13.00;;;;;20.93;38.95;101381.97;5087825;27;46197;-71
2023/04/30 03:11:08;;;;;;;;;13.25;13.00;;;;;20.93;38.85;101381.97;5074181;28;59932;-71
2023/04/30 03:13:33;;;;;;;;;16.25;13.00;;;;;20.92;38.64;101383.78;5073835;28;55535;-71
2023/04/30 03:16:00;;;;;;;;;15.00;13.25;;;;;20.93;39.11;101380.19;5077553;27;47298;-71
2023/04/30 03:18:27;;;;;;;;;14.00;12.25;;;;;20.92;39.02;101380.25;5081561;27;46203;-71
2023/04/30 03:20:52;;;;;;;;;14.00;10.25;;;;;20.93;39.03;101382.84;5072708;28;45526;-71
2023/04/30 03:23:17;;;;;;;;;14.50;11.75;;;;;20.92;38.95;101382.94;5060986;28;55968;-71
2023/04/30 03:25:43;;;;;;;;;15.00;13.75;;;;;20.91;38.79;101376.75;5074829;28;71631;-71
2023/04/30 03:28:08;;;;;;;;;12.00;7.75;;;;;20.92;38.85;101378.44;5084117;27;45354;-71
2023/04/30 03:30:33;;;;;;;;;13.25;11.50;;;;;20.91;38.89;101374.09;5076359;27;62012;-71
2023/04/30 03:32:59;;;;;;;;;12.50;11.50;;;;;20.91;39.08;101373.22;5075412;27;57126;-71
2023/04/30 03:35:24;;;;;;;;;16.00;14.00;;;;;20.91;39.18;101374.09;5053994;27;45457;-71
2023/04/30 03:37:50;;;;;;;;;13.00;11.00;;;;;20.90;38.66;101380.34;5073697;27;45496;-71
2023/04/30 03:40:15;;;;;;;;;15.50;13.50;;;;;20.90;38.70;101375.03;5076223;27;45424;-71
2023/04/30 03:42:40;;;;;;;;;16.50;13.50;;;;;20.91;38.86;101375.88;5080668;27;65127;-71
2023/04/30 03:45:06;;;;;;;;;12.50;11.75;;;;;20.90;39.12;101375.03;5070903;27;59497;-71
2023/04/30 03:47:32;;;;;;;;;13.50;13.00;;;;;20.89;38.96;101372.47;5085900;27;45397;-71
2023/04/30 03:49:57;;;;;;;;;16.00;11.75;;;;;20.88;38.57;101368.94;5074505;27;45482;-71
2023/04/30 03:52:23;;;;;;;;;14.25;14.00;;;;;20.90;38.72;101376.84;5067447;27;66666;-71
2023/04/30 03:54:48;;;;;;;;;14.00;13.00;;;;;20.89;39.03;101375.13;5076173;27;70654;-70
2023/04/30 03:57:13;;;;;;;;;13.25;12.00;;;;;20.88;39.05;101376.09;5058160;28;61877;-71
2023/04/30 03:59:40;;;;;;;;;13.00;12.00;;;;;20.87;39.21;101372.56;5056192;28;59258;-71
2023/04/30 04:02:06;;;;;;;;;16.00;10.75;;;;;20.89;38.55;101378.63;5077241;27;45299;-71
2023/04/30 04:04:32;;;;;;;;;16.25;12.00;;;;;20.90;38.80;101374.19;5071805;28;45456;-71
2023/04/30 04:06:57;;;;;;;;;12.50;11.75;;;;;20.85;38.68;101369.97;5073188;27;45837;-71
2023/04/30 04:09:22;;;;;;;;;13.50;10.75;;;;;20.88;38.65;101376.09;5078346;27;66725;-71
2023/04/30 04:11:48;;;;;;;;;11.75;10.25;;;;;20.87;39.11;101369.88;5077106;27;46925;-71
2023/04/30 04:14:13;;;;;;;;;14.25;10.00;;;;;20.87;39.00;101372.56;5080988;27;47176;-71
2023/04/30 04:16:38;;;;;;;;;14.25;11.00;;;;;20.85;38.78;101369.97;5076715;27;46021;-71
2023/04/30 04:19:04;;;;;;;;;12.00;11.50;;;;;20.85;38.96;101375.28;5071434;28;59235;-71
2023/04/30 04:21:30;;;;;;;;;15.25;14.00;;;;;20.85;38.91;101377.97;5071661;27;45318;-71
2023/04/30 04:23:55;;;;;;;;;14.25;12.00;;;;;20.85;38.98;101372.63;5067491;27;45343;-71
2023/04/30 04:26:24;;;;;;;;;15.25;12.00;;;;;20.84;38.64;101370.06;5050883;28;74323;-71
2023/04/30 04:28:50;;;;;;;;;13.75;10.00;;;;;20.86;39.21;101374.38;5078808;28;45864;-71
2023/04/30 04:31:16;;;;;;;;;13.00;11.00;;;;;20.86;38.70;101378.84;5053925;28;45426;-71
2023/04/30 04:33:41;;;;;;;;;12.00;11.25;;;;;20.83;38.76;101369.22;5064498;28;45405;-71
2023/04/30 04:36:07;;;;;;;;;12.50;11.00;;;;;20.79;39.09;101361.53;5073617;28;46110;-71
2023/04/30 04:38:32;;;;;;;;;13.75;12.25;;;;;20.83;38.92;101376.34;5073962;27;45433;-71
2023/04/30 04:40:58;;;;;;;;;13.75;10.50;;;;;20.84;38.97;101380.72;5070672;28;45441;-71
2023/04/30 04:43:23;;;;;;;;;13.00;11.50;;;;;20.84;39.04;101384.25;5063234;27;45774;-71
2023/04/30 04:45:49;;;;;;;;;11.00;10.00;;;;;20.85;39.01;101377.09;5078699;27;49180;-71
2023/04/30 04:48:14;;;;;;;;;16.00;12.00;;;;;20.82;38.64;101377.28;5074635;28;45416;-71
2023/04/30 04:50:39;;;;;;;;;11.00;10.50;;;;;20.83;38.63;101382.53;5069229;28;45477;-71
2023/04/30 04:53:05;;;;;;;;;12.25;10.75;;;;;20.83;38.50;101379.00;5070389;28;45513;-71
2023/04/30 04:55:30;;;;;;;;;12.50;11.25;;;;;20.81;39.34;101373.78;5073431;27;75620;-71
2023/04/30 04:57:56;;;;;;;;;13.25;12.50;;;;;20.81;38.82;101384.41;5076902;27;45287;-71
2023/04/30 05:00:22;;;;;;;;;10.50;9.50;;;;;20.81;38.79;101384.41;5073897;27;45472;-71
2023/04/30 05:02:47;;;;;;;;;10.75;10.50;;;;;20.83;39.13;101385.19;5073899;27;45310;-71
2023/04/30 05:05:12;;;;;;;;;9.25;8.25;;;;;20.81;38.63;101387.06;5067316;28;45446;-71
2023/04/30 05:07:38;;;;;;;;;15.25;10.75;;;;;20.83;39.21;101397.63;5068476;27;59445;-71
2023/04/30 05:10:04;;;;;;;;;12.25;10.75;;;;;20.81;39.19;101384.41;5075310;27;45408;-71
2023/04/30 05:12:29;;;;;;;;;12.75;10.50;;;;;20.80;38.80;101384.50;5071539;28;45484;-71
2023/04/30 05:14:55;;;;;;;;;12.75;11.25;;;;;20.82;39.04;101390.59;5075040;27;45962;-71
2023/04/30 05:17:20;;;;;;;;;13.75;11.50;;;;;20.80;38.80;101401.31;5078310;27;68773;-71
2023/04/30 05:19:49;;;;;;;;;11.75;9.50;;;;;20.82;39.09;101401.22;5071864;28;70763;-71
2023/04/30 05:22:14;;;;;;;;;9.25;8.75;;;;;20.79;38.57;101402.28;5052009;28;45582;-71
2023/04/30 05:24:40;;;;;;;;;9.75;9.00;;;;;20.81;38.71;101407.50;5073832;27;46170;-71
2023/04/30 05:27:05;;;;;;;;;13.25;11.50;;;;;20.80;38.84;101406.63;5068036;27;45483;-71
2023/04/30 05:29:30;;;;;;;;;11.50;10.25;;;;;20.81;38.90;101411.03;5070874;28;45440;-71
2023/04/30 05:31:56;;;;;;;;;10.00;9.75;;;;;20.80;39.11;101411.97;5073759;27;55631;-71
2023/04/30 05:34:21;;;;;;;;;11.00;9.25;;;;;20.79;39.10;101415.59;5076509;27;72469;-71
2023/04/30 05:36:46;;;;;;;;;12.00;10.00;;;;;20.78;38.90;101408.53;5077922;27;70058;-71
2023/04/30 05:39:12;;;;;;;;;11.50;11.00;;;;;20.81;39.08;101415.50;5078413;27;66689;-71
2023/04/30 05:41:37;;;;;;;;;11.50;9.50;;;;;20.79;38.51;101414.72;5060431;28;45213;-71
2023/04/30 05:44:03;;;;;;;;;11.00;10.00;;;;;20.79;39.04;101404.94;5074080;28;47766;-71
2023/04/30 05:46:29;;;;;;;;;10.75;9.75;;;;;20.79;39.00;101406.75;5071851;28;45316;-71
2023/04/30 05:48:54;;;;;;;;;13.00;10.00;;;;;20.80;38.72;101411.09;5076496;27;46081;-71
2023/04/30 05:51:20;;;;;;;;;11.00;10.00;;;;;20.80;38.76;101411.97;5072787;28;73428;-71
2023/04/30 05:53:45;;;;;;;;;12.50;9.50;;;;;20.79;38.92;101407.59;5094896;27;45260;-71
2023/04/30 05:56:11;;;;;;;;;9.25;9.00;;;;;20.79;38.76;101410.25;5078816;27;67925;-71
2023/04/30 05:58:37;;;;;;;;;15.00;11.00;;;;;20.80;38.58;101413.78;5094896;27;45746;-71
2023/04/30 06:01:03;;;;;;;;;15.75;11.00;;;;;20.80;38.80;101411.09;5078420;27;45484;-71
2023/04/30 06:03:28;;;;;;;;;8.50;8.50;;;;;20.79;38.86;101412.91;5085094;27;45749;-71
2023/04/30 06:05:53;;;;;;;;;13.00;10.25;;;;;20.79;38.62;101410.25;5077841;27;46325;-71
2023/04/30 06:08:19;;;;;;;;;9.75;9.75;;;;;20.80;38.86;101411.97;5073638;28;45435;-71
2023/04/30 06:10:45;;;;;;;;;10.50;9.50;;;;;20.79;39.08;101415.59;5072292;28;45315;-71
2023/04/30 06:13:10;;;;;;;;;11.25;9.25;;;;;20.81;38.81;101412.84;5086316;27;47391;-71
2023/04/30 06:15:36;;;;;;;;;13.25;11.00;;;;;20.80;39.02;101411.09;5077811;27;45756;-71
2023/04/30 06:18:01;;;;;;;;;11.50;10.00;;;;;20.75;39.26;101405.19;5089101;27;53480;-71
2023/04/30 06:20:27;;;;;;;;;9.50;9.00;;;;;20.79;39.08;101415.59;5076228;27;45456;-71
2023/04/30 06:22:52;;;;;;;;;12.50;9.75;;;;;20.78;38.96;101411.19;5077465;27;46339;-71
2023/04/30 06:25:18;;;;;;;;;12.00;9.50;;;;;20.78;39.01;101415.66;5073781;27;45264;-71
2023/04/30 06:27:45;;;;;;;;;10.00;9.25;;;;;20.75;39.02;101411.41;5081386;27;45444;-71
2023/04/30 06:30:10;;;;;;;;;13.25;9.50;;;;;20.77;38.94;101412.16;5085995;27;45402;-71
2023/04/30 06:32:35;;;;;;;;;11.00;11.00;;;;;20.79;39.08;101414.72;5079133;27;47182;-71
2023/04/30 06:35:01;;;;;;;;;11.50;9.25;;;;;20.80;38.67;101419.09;5063759;28;45275;-71
2023/04/30 06:37:26;;;;;;;;;11.50;11.00;;;;;20.78;39.02;101419.19;5080053;27;45196;-71
2023/04/30 06:39:52;;;;;;;;;12.00;9.50;;;;;20.78;38.97;101418.31;5078826;27;45269;-71
2023/04/30 06:42:17;;;;;;;;;14.00;11.25;;;;;20.79;38.74;101422.72;5072389;27;46828;-71
2023/04/30 06:44:42;;;;;;;;;10.50;10.00;;;;;20.78;38.82;101421.00;5081626;27;61236;-71
2023/04/30 06:47:08;;;;;;;;;12.00;10.00;;;;;20.79;38.87;101414.72;5074013;28;45373;-71
2023/04/30 06:49:33;;;;;;;;;12.50;11.50;;;;;20.75;39.30;101411.41;5077586;28;56948;-71
2023/04/30 06:51:58;;;;;;;;;13.75;10.75;;;;;20.78;38.57;101416.53;5076338;27;57360;-71
2023/04/30 06:54:25;;;;;;;;;10.25;9.00;;;;;20.77;39.13;101419.25;5087470;27;65795;-71
2023/04/30 06:56:51;;;;;;;;;10.75;8.75;;;;;20.78;39.10;101408.53;5073118;27;45447;-71
2023/04/30 06:59:17;;;;;;;;;11.00;8.50;;;;;20.78;38.83;101413.84;5061361;28;45508;-71
2023/04/30 07:01:42;;;;;;;;;10.00;10.00;;;;;20.76;39.03;101405.13;5069563;28;45358;-71
2023/04/30 07:04:07;;;;;;;;;11.50;9.50;;;;;20.78;38.64;101413.84;5073568;27;48054;-71
2023/04/30 07:06:32;;;;;;;;;12.25;8.75;;;;;20.79;38.73;101412.06;5072275;27;56971;-71
2023/04/30 07:08:58;;;;;;;;;10.00;9.25;;;;;20.77;38.96;101411.28;5086644;27;57049;-71
2023/04/30 07:11:23;;;;;;;;;9.25;9.00;;;;;20.79;38.89;101414.72;5076295;27;56706;-71
2023/04/30 07:13:49;;;;;;;;;7.75;7.00;;;;;20.76;38.76;101409.59;5074885;27;45367;-71
2023/04/30 07:16:15;;;;;;;;;12.75;9.00;;;;;20.75;39.04;101398.09;5059862;28;45565;-71
2023/04/30 07:18:41;;;;;;;;;11.50;11.00;;;;;20.77;39.10;101411.28;5081904;27;45165;-71
2023/04/30 07:21:07;;;;;;;;;10.00;9.00;;;;;20.78;38.63;101421.84;5073315;27;46348;-71
2023/04/30 07:23:33;;;;;;;;;11.75;11.75;;;;;20.77;39.02;101419.25;5059814;28;46156;-71
2023/04/30 07:25:58;;;;;;;;;9.00;8.50;;;;;20.77;39.05;101422.81;5057575;27;45569;-71
2023/04/30 07:28:23;;;;;;;;;11.75;11.00;;;;;20.77;39.03;101417.47;5083616;27;69190;-71
2023/04/30 07:30:49;;;;;;;;;13.25;11.00;;;;;20.75;38.83;101418.50;5071969;27;71955;-71
2023/04/30 07:33:14;;;;;;;;;11.25;9.75;;;;;20.76;38.94;101426.41;5067194;27;69575;-71
2023/04/30 07:35:40;;;;;;;;;11.00;10.00;;;;;20.76;39.13;101426.41;5054631;27;59240;-71
2023/04/30 07:38:05;;;;;;;;;9.50;9.00;;;;;20.78;38.85;101431.63;5087782;27;45532;-71
2023/04/30 07:40:31;;;;;;;;;12.25;9.50;;;;;20.76;38.78;101431.72;5072909;27;54789;-71
2023/04/30 07:42:56;;;;;;;;;14.25;9.50;;;;;20.77;38.71;101433.44;5082016;27;72956;-71
2023/04/30 07:45:21;;;;;;;;;12.75;10.50;;;;;20.76;38.78;101431.72;5075465;27;45500;-71
2023/04/30 07:47:47;;;;;;;;;10.75;10.50;;;;;20.77;39.28;101427.25;5082210;27;56500;-71
2023/04/30 07:50:13;;;;;;;;;11.50;11.00;;;;;20.77;39.29;101433.44;5075080;27;45379;-71
2023/04/30 07:52:39;;;;;;;;;12.25;9.50;;;;;20.77;39.11;101430.78;5075175;27;45817;-71
2023/04/30 07:55:05;;;;;;;;;14.00;9.75;;;;;20.77;38.70;101428.13;5072325;28;45293;-71
2023/04/30 07:57:30;;;;;;;;;13.50;11.00;;;;;20.77;38.56;101427.25;5072098;28;45533;-71
2023/04/30 07:59:56;;;;;;;;;12.25;10.00;;;;;20.77;38.79;101427.25;5057713;28;47330;-71
2023/04/30 08:02:21;;;;;;;;;12.75;9.50;;;;;20.78;38.94;101428.97;5077434;28;45313;-71
2023/04/30 08:04:47;;;;;;;;;12.75;10.00;;;;;20.76;38.82;101429.06;5063067;27;45347;-71
2023/04/30 08:07:14;;;;;;;;;12.25;9.50;;;;;20.77;38.74;101424.59;5077589;27;45540;-71
2023/04/30 08:09:40;;;;;;;;;12.25;11.00;;;;;20.78;39.02;101429.81;5075211;28;48276;-71
2023/04/30 08:12:06;;;;;;;;;13.50;11.00;;;;;20.78;39.17;101423.66;5063651;28;45513;-71
2023/04/30 08:14:31;;;;;;;;;13.25;11.75;;;;;20.78;38.95;101421.84;5086938;27;45466;-71
2023/04/30 08:16:58;;;;;;;;;10.75;10.75;;;;;20.78;38.72;101423.66;5079129;28;45529;-71
2023/04/30 08:19:23;;;;;;;;;11.25;11.25;;;;;20.77;39.11;101416.59;5066268;28;45359;-71
2023/04/30 08:21:49;;;;;;;;;9.00;9.00;;;;;20.79;38.80;101420.06;5083103;27;45375;-71
2023/04/30 08:24:14;;;;;;;;;12.25;10.00;;;;;20.77;38.82;101416.59;5091613;27;45249;-71
2023/04/30 08:26:39;;;;;;;;;12.75;9.00;;;;;20.79;39.28;101412.91;5050789;28;45436;-71
2023/04/30 08:29:07;;;;;;;;;13.50;10.00;;;;;20.79;39.23;101407.59;5094365;27;73051;-71
2023/04/30 08:31:32;;;;;;;;;11.25;9.75;;;;;20.79;38.78;101407.59;5074615;28;45444;-71
2023/04/30 08:33:58;;;;;;;;;11.25;11.25;;;;;20.78;39.30;101405.03;5096467;27;45393;-71
2023/04/30 08:36:23;;;;;;;;;12.50;9.50;;;;;20.78;38.93;101413.00;5072340;27;45554;-71
2023/04/30 08:38:48;;;;;;;;;10.50;7.75;;;;;20.79;38.86;101417.41;5079899;27;45341;-71
2023/04/30 08:41:17;;;;;;;;;9.00;8.75;;;;;20.79;38.95;101412.91;5070505;28;54678;-71
2023/04/30 08:43:45;;;;;;;;;12.00;10.50;;;;;20.80;38.97;101413.78;5078359;28;45349;-71
2023/04/30 08:46:15;;;;;;;;;11.25;10.25;;;;;20.79;39.21;101409.41;5077471;28;45643;-71
2023/04/30 08:48:41;;;;;;;;;9.75;9.75;;;;;20.78;39.21;101405.88;5085447;27;46277;-71
2023/04/30 08:51:06;;;;;;;;;14.75;10.75;;;;;20.79;38.92;101404.94;5070767;27;45319;-71
2023/04/30 08:53:34;;;;;;;;;11.00;8.50;;;;;20.81;39.18;101415.50;5077908;28;66914;-71
2023/04/30 08:56:00;;;;;;;;;10.25;8.00;;;;;20.78;38.71;101405.03;5059940;27;45501;-71
2023/04/30 08:58:25;;;;;;;;;10.00;10.00;;;;;20.80;39.11;101405.78;5077497;28;46277;-71
2023/04/30 09:00:50;;;;;;;;;11.50;9.25;;;;;20.81;38.76;101408.38;5073207;27;45279;-71
2023/04/30 09:03:16;;;;;;;;;11.75;10.00;;;;;20.81;39.32;101407.50;5069941;28;67556;-71
2023/04/30 09:05:41;;;;;;;;;10.00;9.25;;;;;20.81;39.32;101403.03;5054061;27;45474;-71
2023/04/30 09:08:07;;;;;;;;;10.75;10.00;;;;;20.79;38.89;101396.13;5071103;28;70549;-71
2023/04/30 09:10:34;;;;;;;;;10.75;9.00;;;;;20.80;39.04;101388.00;5052569;27;46022;-71
2023/04/30 09:13:10;;;;;;;;;10.50;9.75;;;;;20.83;38.96;101397.63;5071865;28;45508;-71
2023/04/30 09:15:37;;;;;;;;;10.75;9.00;;;;;20.82;39.09;101391.47;5068204;27;45462;-71
2023/04/30 09:18:13;;;;;;;;;10.50;9.00;;;;;20.84;38.83;101394.00;5078140;28;46422;-71
2023/04/30 09:20:54;;;;;;;;;10.25;8.25;;;;;20.83;38.84;101392.31;5074492;27;45448;-71
2023/04/30 09:23:19;;;;;;;;;9.50;9.00;;;;;20.83;39.30;101394.97;5055171;28;45533;-71
2023/04/30 09:25:45;;;;;;;;;11.00;8.00;;;;;20.85;39.26;101393.06;5075586;27;45501;-71
2023/04/30 09:28:11;;;;;;;;;13.75;9.00;;;;;20.84;38.77;101399.31;5053503;28;47506;-71
2023/04/30 09:30:38;;;;;;;;;10.00;9.75;;;;;20.84;38.88;101386.91;5068861;27;45291;-71
2023/04/30 09:33:04;;;;;;;;;10.50;8.25;;;;;20.86;39.38;101397.47;5077531;28;45333;-71
2023/04/30 09:35:32;;;;;;;;;9.00;8.00;;;;;20.87;39.36;101393.84;5048323;27;45413;-71
2023/04/30 09:38:01;;;;;;;;;11.00;10.25;;;;;20.86;39.05;101392.13;5072095;27;46413;-71
2023/04/30 09:40:41;;;;;;;;;11.75;8.50;;;;;20.87;39.11;101393.84;5057951;28;45412;-71
2023/04/30 09:43:07;;;;;;;;;8.00;7.00;;;;;20.87;39.11;101396.50;5076757;27;68951;-71
2023/04/30 09:45:46;;;;;;;;;9.50;8.00;;;;;20.87;38.81;101393.84;5077362;27;45291;-71
2023/04/30 09:48:11;;;;;;;;;11.50;8.75;;;;;20.89;39.04;101399.06;5072563;27;45579;-71
2023/04/30 09:50:39;;;;;;;;;9.00;9.00;;;;;20.89;39.00;101386.59;5071366;27;45375;-71
2023/04/30 09:53:06;;;;;;;;;8.50;8.00;;;;;20.88;39.25;101382.25;5073264;27;45369;-71
2023/04/30 09:55:32;;;;;;;;;9.00;8.00;;;;;20.90;39.29;101383.00;5074817;28;45380;-71
2023/04/30 09:57:58;;;;;;;;;11.50;8.25;;;;;20.89;38.98;101381.28;5074426;27;61648;-71
2023/04/30 10:00:23;;;;;;;;;8.50;7.75;;;;;20.89;39.17;101383.09;5072426;27;49443;-71
2023/04/30 10:02:49;;;;;;;;;10.75;8.25;;;;;20.91;38.93;101375.88;5057235;28;60495;-71
2023/04/30 10:05:15;;;;;;;;;9.00;8.50;;;;;20.91;38.79;101379.41;5050985;28;45605;-71
2023/04/30 10:07:41;;;;;;;;;10.00;9.00;;;;;20.90;38.84;101374.19;5076057;27;45449;-74
2023/04/30 10:10:10;;;;;;;;;10.00;8.00;;;;;20.93;38.88;101376.63;5052302;28;46094;-72
2023/04/30 10:12:55;;;;;;;;;8.75;8.75;;;;;20.93;39.24;101371.31;5074331;27;45290;-71
2023/04/30 10:15:43;;;;;;;;;10.50;10.50;;;;;20.94;39.23;101371.22;5073627;28;45689;-71
2023/04/30 10:18:17;;;;;;;;;15.75;10.25;;;;;20.95;38.86;101366.78;5060183;27;48393;-71
2023/04/30 10:20:45;;;;;;;;;12.75;12.00;;;;;20.92;39.06;101359.81;5071963;28;45853;-72
2023/04/30 10:23:11;;;;;;;;;10.75;10.00;;;;;20.94;39.43;101363.25;5080038;27;45489;-71
2023/04/30 10:25:37;;;;;;;;;14.25;11.75;;;;;20.94;39.41;101355.25;5052701;28;66538;-71
2023/04/30 10:28:03;;;;;;;;;15.50;12.50;;;;;20.95;39.23;101357.00;5079079;27;45503;-71
2023/04/30 10:30:30;;;;;;;;;17.75;15.00;;;;;20.95;39.39;101354.31;5072538;27;45611;-71
2023/04/30 10:32:58;;;;;;;;;13.00;11.25;;;;;20.96;39.07;101348.03;5078623;27;45246;-71
2023/04/30 10:35:26;;;;;;;;;14.25;12.50;;;;;20.96;38.92;101341.88;5070289;27;45543;-71
2023/04/30 10:38:07;;;;;;;;;15.25;11.75;;;;;20.98;38.90;101345.28;5063427;28;47455;-71
2023/04/30 10:40:37;;;;;;;;;13.25;12.00;;;;;20.94;39.27;101335.78;5067511;27;45557;-71
2023/04/30 10:43:02;;;;;;;;;13.75;13.00;;;;;20.98;39.07;101342.63;5080293;27;45391;-71
2023/04/30 10:45:38;;;;;;;;;16.50;13.50;;;;;20.96;39.21;101334.72;5077875;28;65529;-71
2023/04/30 10:48:05;;;;;;;;;16.50;15.50;;;;;20.98;39.32;101342.63;5070803;27;46395;-71
2023/04/30 10:50:31;;;;;;;;;12.75;12.00;;;;;20.98;39.06;101331.97;5071818;27;48244;-71
2023/04/30 10:53:03;;;;;;;;;17.00;13.75;;;;;20.95;39.26;101325.06;5059703;27;45442;-71
2023/04/30 10:55:29;;;;;;;;;18.25;12.75;;;;;20.97;39.05;101327.63;5074871;27;45999;-71
2023/04/30 10:57:54;;;;;;;;;18.50;14.00;;;;;20.96;39.33;101328.56;5061980;28;45457;-72
2023/04/30 11:00:25;;;;;;;;;16.00;12.75;;;;;20.96;39.06;101326.75;5056499;27;68196;-72
2023/04/30 11:02:55;;;;;;;;;17.00;13.75;;;;;20.99;39.31;101329.22;5063968;28;45428;-71
2023/04/30 11:05:21;;;;;;;;;23.00;15.50;;;;;20.96;39.56;101315.25;5078849;27;45290;-71
2023/04/30 11:07:56;;;;;;;;;14.00;13.00;;;;;20.97;39.39;101325.81;5078398;27;45376;-71
2023/04/30 11:10:24;;;;;;;;;14.25;12.75;;;;;20.99;39.58;101323.91;5057589;28;45240;-71